sensor_id;sensor_type;location;lat;lon;timestamp;P1;durP1;ratioP1;P2;durP2;ratioP2
18172;SDS011;9211;48.818;9.312;2023-02-08T00:02:15;30.95;;;15.77;;
18172;SDS011;9211;48.818;9.312;2023-02-08T00:04:42;33.17;;;16.00;;
18172;SDS011;9211;48.818;9.312;2023-02-08T00:07:11;35.95;;;16.20;;
18172;SDS011;9211;48.818;9.312;2023-02-08T00:09:38;33.60;;;16.08;;
18172;SDS011;9211;48.818;9.312;2023-02-08T00:12:05;31.30;;;15.80;;
18172;SDS011;9211;48.818;9.312;2023-02-08T00:14:33;34.45;;;16.58;;
18172;SDS011;9211;48.818;9.312;2023-02-08T00:17:00;35.27;;;16.17;;
18172;SDS011;9211;48.818;9.312;2023-02-08T00:19:27;33.88;;;16.27;;
18172;SDS011;9211;48.818;9.312;2023-02-08T00:21:54;34.25;;;16.73;;
18172;SDS011;9211;48.818;9.312;2023-02-08T00:24:22;32.03;;;15.73;;
18172;SDS011;9211;48.818;9.312;2023-02-08T00:26:49;31.58;;;15.90;;
18172;SDS011;9211;48.818;9.312;2023-02-08T00:29:16;33.63;;;15.65;;
18172;SDS011;9211;48.818;9.312;2023-02-08T00:31:43;32.70;;;15.80;;
18172;SDS011;9211;48.818;9.312;2023-02-08T00:34:10;33.58;;;15.50;;
18172;SDS011;9211;48.818;9.312;2023-02-08T00:36:37;34.33;;;16.47;;
18172;SDS011;9211;48.818;9.312;2023-02-08T00:39:07;33.83;;;15.48;;
18172;SDS011;9211;48.818;9.312;2023-02-08T00:41:35;34.67;;;16.17;;
18172;SDS011;9211;48.818;9.312;2023-02-08T00:44:02;33.13;;;16.27;;
18172;SDS011;9211;48.818;9.312;2023-02-08T00:46:29;34.25;;;16.80;;
18172;SDS011;9211;48.818;9.312;2023-02-08T00:48:57;32.92;;;16.90;;
18172;SDS011;9211;48.818;9.312;2023-02-08T00:51:24;32.90;;;16.13;;
18172;SDS011;9211;48.818;9.312;2023-02-08T00:53:51;34.25;;;16.50;;
18172;SDS011;9211;48.818;9.312;2023-02-08T00:56:18;36.08;;;16.85;;
18172;SDS011;9211;48.818;9.312;2023-02-08T00:58:47;32.83;;;16.77;;
18172;SDS011;9211;48.818;9.312;2023-02-08T01:01:15;32.67;;;15.60;;
18172;SDS011;9211;48.818;9.312;2023-02-08T01:03:43;29.95;;;15.20;;
18172;SDS011;9211;48.818;9.312;2023-02-08T01:06:14;32.50;;;14.93;;
18172;SDS011;9211;48.818;9.312;2023-02-08T01:08:43;30.73;;;14.73;;
18172;SDS011;9211;48.818;9.312;2023-02-08T01:11:12;29.63;;;14.93;;
18172;SDS011;9211;48.818;9.312;2023-02-08T01:13:42;35.35;;;16.52;;
18172;SDS011;9211;48.818;9.312;2023-02-08T01:16:11;36.40;;;15.48;;
18172;SDS011;9211;48.818;9.312;2023-02-08T01:18:40;36.23;;;15.60;;
18172;SDS011;9211;48.818;9.312;2023-02-08T01:21:09;34.00;;;15.18;;
18172;SDS011;9211;48.818;9.312;2023-02-08T01:23:39;32.58;;;14.38;;
18172;SDS011;9211;48.818;9.312;2023-02-08T01:26:07;33.03;;;14.38;;
18172;SDS011;9211;48.818;9.312;2023-02-08T01:28:36;34.05;;;14.80;;
18172;SDS011;9211;48.818;9.312;2023-02-08T01:31:04;28.13;;;14.10;;
18172;SDS011;9211;48.818;9.312;2023-02-08T01:33:34;31.13;;;13.82;;
18172;SDS011;9211;48.818;9.312;2023-02-08T01:36:01;31.13;;;13.57;;
18172;SDS011;9211;48.818;9.312;2023-02-08T01:38:28;31.03;;;13.93;;
18172;SDS011;9211;48.818;9.312;2023-02-08T01:40:57;28.03;;;13.40;;
18172;SDS011;9211;48.818;9.312;2023-02-08T01:43:24;31.88;;;13.68;;
18172;SDS011;9211;48.818;9.312;2023-02-08T01:45:53;32.28;;;14.10;;
18172;SDS011;9211;48.818;9.312;2023-02-08T01:48:21;28.73;;;13.95;;
18172;SDS011;9211;48.818;9.312;2023-02-08T01:50:54;27.60;;;13.67;;
18172;SDS011;9211;48.818;9.312;2023-02-08T01:53:27;27.90;;;13.20;;
18172;SDS011;9211;48.818;9.312;2023-02-08T01:55:58;31.17;;;13.10;;
18172;SDS011;9211;48.818;9.312;2023-02-08T01:58:28;31.50;;;12.93;;
18172;SDS011;9211;48.818;9.312;2023-02-08T02:00:57;30.77;;;13.77;;
18172;SDS011;9211;48.818;9.312;2023-02-08T02:03:24;29.27;;;13.52;;
18172;SDS011;9211;48.818;9.312;2023-02-08T02:05:54;31.02;;;12.73;;
18172;SDS011;9211;48.818;9.312;2023-02-08T02:08:26;28.23;;;13.82;;
18172;SDS011;9211;48.818;9.312;2023-02-08T02:10:53;30.02;;;12.80;;
18172;SDS011;9211;48.818;9.312;2023-02-08T02:13:20;27.95;;;13.40;;
18172;SDS011;9211;48.818;9.312;2023-02-08T02:15:50;28.15;;;12.95;;
18172;SDS011;9211;48.818;9.312;2023-02-08T02:18:19;30.05;;;13.73;;
18172;SDS011;9211;48.818;9.312;2023-02-08T02:20:54;35.70;;;14.10;;
18172;SDS011;9211;48.818;9.312;2023-02-08T02:23:53;28.83;;;13.82;;
18172;SDS011;9211;48.818;9.312;2023-02-08T02:26:46;30.15;;;13.95;;
18172;SDS011;9211;48.818;9.312;2023-02-08T02:29:36;32.90;;;14.50;;
18172;SDS011;9211;48.818;9.312;2023-02-08T02:32:24;25.90;;;13.33;;
18172;SDS011;9211;48.818;9.312;2023-02-08T02:35:02;33.05;;;13.35;;
18172;SDS011;9211;48.818;9.312;2023-02-08T02:37:37;30.50;;;14.00;;
18172;SDS011;9211;48.818;9.312;2023-02-08T02:40:16;30.92;;;13.45;;
18172;SDS011;9211;48.818;9.312;2023-02-08T02:42:51;27.73;;;13.20;;
18172;SDS011;9211;48.818;9.312;2023-02-08T02:45:45;29.52;;;13.90;;
18172;SDS011;9211;48.818;9.312;2023-02-08T02:48:21;30.58;;;13.85;;
18172;SDS011;9211;48.818;9.312;2023-02-08T02:50:57;30.17;;;13.52;;
18172;SDS011;9211;48.818;9.312;2023-02-08T02:53:28;32.05;;;13.68;;
18172;SDS011;9211;48.818;9.312;2023-02-08T02:56:03;31.40;;;14.30;;
18172;SDS011;9211;48.818;9.312;2023-02-08T02:58:34;30.83;;;14.52;;
18172;SDS011;9211;48.818;9.312;2023-02-08T03:03:36;27.17;;;13.50;;
18172;SDS011;9211;48.818;9.312;2023-02-08T03:06:05;30.00;;;13.73;;
18172;SDS011;9211;48.818;9.312;2023-02-08T03:08:55;27.27;;;13.50;;
18172;SDS011;9211;48.818;9.312;2023-02-08T03:11:31;36.20;;;13.57;;
18172;SDS011;9211;48.818;9.312;2023-02-08T03:14:11;28.70;;;14.07;;
18172;SDS011;9211;48.818;9.312;2023-02-08T03:17:03;31.23;;;14.68;;
18172;SDS011;9211;48.818;9.312;2023-02-08T03:19:58;30.40;;;14.85;;
18172;SDS011;9211;48.818;9.312;2023-02-08T03:22:32;30.85;;;14.77;;
18172;SDS011;9211;48.818;9.312;2023-02-08T03:25:09;29.02;;;14.52;;
18172;SDS011;9211;48.818;9.312;2023-02-08T03:27:43;31.95;;;13.73;;
18172;SDS011;9211;48.818;9.312;2023-02-08T03:30:19;31.98;;;14.32;;
18172;SDS011;9211;48.818;9.312;2023-02-08T03:32:53;29.17;;;13.93;;
18172;SDS011;9211;48.818;9.312;2023-02-08T03:35:26;28.90;;;14.05;;
18172;SDS011;9211;48.818;9.312;2023-02-08T03:37:57;27.67;;;13.38;;
18172;SDS011;9211;48.818;9.312;2023-02-08T03:40:27;27.70;;;13.20;;
18172;SDS011;9211;48.818;9.312;2023-02-08T03:42:58;28.38;;;13.65;;
18172;SDS011;9211;48.818;9.312;2023-02-08T03:45:30;27.60;;;13.60;;
18172;SDS011;9211;48.818;9.312;2023-02-08T03:48:01;27.38;;;13.25;;
18172;SDS011;9211;48.818;9.312;2023-02-08T03:50:33;28.30;;;13.65;;
18172;SDS011;9211;48.818;9.312;2023-02-08T03:53:03;28.40;;;13.05;;
18172;SDS011;9211;48.818;9.312;2023-02-08T03:55:31;31.80;;;13.57;;
18172;SDS011;9211;48.818;9.312;2023-02-08T03:58:02;34.35;;;13.70;;
18172;SDS011;9211;48.818;9.312;2023-02-08T04:00:34;30.60;;;13.40;;
18172;SDS011;9211;48.818;9.312;2023-02-08T04:03:05;28.73;;;12.98;;
18172;SDS011;9211;48.818;9.312;2023-02-08T04:05:37;28.33;;;12.73;;
18172;SDS011;9211;48.818;9.312;2023-02-08T04:08:05;27.73;;;12.27;;
18172;SDS011;9211;48.818;9.312;2023-02-08T04:10:32;26.15;;;12.60;;
18172;SDS011;9211;48.818;9.312;2023-02-08T04:12:59;27.70;;;12.57;;
18172;SDS011;9211;48.818;9.312;2023-02-08T04:15:25;26.15;;;12.60;;
18172;SDS011;9211;48.818;9.312;2023-02-08T04:17:52;27.27;;;12.73;;
18172;SDS011;9211;48.818;9.312;2023-02-08T04:20:19;29.35;;;12.77;;
18172;SDS011;9211;48.818;9.312;2023-02-08T04:22:48;27.70;;;12.88;;
18172;SDS011;9211;48.818;9.312;2023-02-08T04:25:15;29.83;;;13.98;;
18172;SDS011;9211;48.818;9.312;2023-02-08T04:27:42;27.33;;;12.77;;
18172;SDS011;9211;48.818;9.312;2023-02-08T04:30:10;30.63;;;12.82;;
18172;SDS011;9211;48.818;9.312;2023-02-08T04:32:38;26.33;;;12.70;;
18172;SDS011;9211;48.818;9.312;2023-02-08T04:35:05;29.50;;;12.88;;
18172;SDS011;9211;48.818;9.312;2023-02-08T04:37:32;26.38;;;12.73;;
18172;SDS011;9211;48.818;9.312;2023-02-08T04:40:00;28.52;;;13.07;;
18172;SDS011;9211;48.818;9.312;2023-02-08T04:42:27;28.77;;;13.65;;
18172;SDS011;9211;48.818;9.312;2023-02-08T04:44:54;32.20;;;13.73;;
18172;SDS011;9211;48.818;9.312;2023-02-08T04:47:21;26.95;;;12.55;;
18172;SDS011;9211;48.818;9.312;2023-02-08T04:49:48;25.92;;;12.50;;
18172;SDS011;9211;48.818;9.312;2023-02-08T04:52:15;26.15;;;12.77;;
18172;SDS011;9211;48.818;9.312;2023-02-08T04:54:42;28.73;;;12.98;;
18172;SDS011;9211;48.818;9.312;2023-02-08T04:57:12;30.50;;;12.82;;
18172;SDS011;9211;48.818;9.312;2023-02-08T04:59:39;27.05;;;12.60;;
18172;SDS011;9211;48.818;9.312;2023-02-08T05:02:07;27.08;;;12.52;;
18172;SDS011;9211;48.818;9.312;2023-02-08T05:04:34;28.83;;;12.80;;
18172;SDS011;9211;48.818;9.312;2023-02-08T05:07:01;28.20;;;12.50;;
18172;SDS011;9211;48.818;9.312;2023-02-08T05:09:28;30.95;;;12.85;;
18172;SDS011;9211;48.818;9.312;2023-02-08T05:11:55;24.30;;;12.52;;
18172;SDS011;9211;48.818;9.312;2023-02-08T05:14:23;29.50;;;12.88;;
18172;SDS011;9211;48.818;9.312;2023-02-08T05:16:50;25.42;;;12.38;;
18172;SDS011;9211;48.818;9.312;2023-02-08T05:19:17;26.60;;;12.50;;
18172;SDS011;9211;48.818;9.312;2023-02-08T05:21:44;28.73;;;12.85;;
18172;SDS011;9211;48.818;9.312;2023-02-08T05:24:11;29.48;;;12.65;;
18172;SDS011;9211;48.818;9.312;2023-02-08T05:26:38;22.17;;;11.93;;
18172;SDS011;9211;48.818;9.312;2023-02-08T05:29:05;26.10;;;11.82;;
18172;SDS011;9211;48.818;9.312;2023-02-08T05:31:33;27.10;;;12.20;;
18172;SDS011;9211;48.818;9.312;2023-02-08T05:34:00;28.23;;;12.75;;
18172;SDS011;9211;48.818;9.312;2023-02-08T05:36:27;25.30;;;12.40;;
18172;SDS011;9211;48.818;9.312;2023-02-08T05:38:54;27.23;;;12.80;;
18172;SDS011;9211;48.818;9.312;2023-02-08T05:41:21;25.77;;;12.60;;
18172;SDS011;9211;48.818;9.312;2023-02-08T05:43:48;27.30;;;12.77;;
18172;SDS011;9211;48.818;9.312;2023-02-08T05:46:15;25.83;;;12.20;;
18172;SDS011;9211;48.818;9.312;2023-02-08T05:48:43;25.75;;;12.80;;
18172;SDS011;9211;48.818;9.312;2023-02-08T05:51:10;26.80;;;12.73;;
18172;SDS011;9211;48.818;9.312;2023-02-08T05:53:37;26.80;;;13.00;;
18172;SDS011;9211;48.818;9.312;2023-02-08T05:56:04;24.38;;;12.60;;
18172;SDS011;9211;48.818;9.312;2023-02-08T05:58:32;24.40;;;12.60;;
18172;SDS011;9211;48.818;9.312;2023-02-08T06:00:59;26.65;;;13.27;;
18172;SDS011;9211;48.818;9.312;2023-02-08T06:03:26;26.05;;;13.20;;
18172;SDS011;9211;48.818;9.312;2023-02-08T06:05:54;26.85;;;13.00;;
18172;SDS011;9211;48.818;9.312;2023-02-08T06:08:25;26.98;;;13.23;;
18172;SDS011;9211;48.818;9.312;2023-02-08T06:10:52;28.63;;;13.65;;
18172;SDS011;9211;48.818;9.312;2023-02-08T06:13:18;27.45;;;13.80;;
18172;SDS011;9211;48.818;9.312;2023-02-08T06:15:45;26.95;;;12.80;;
18172;SDS011;9211;48.818;9.312;2023-02-08T06:18:12;27.50;;;13.52;;
18172;SDS011;9211;48.818;9.312;2023-02-08T06:20:39;29.30;;;13.23;;
18172;SDS011;9211;48.818;9.312;2023-02-08T06:23:08;24.95;;;12.70;;
18172;SDS011;9211;48.818;9.312;2023-02-08T06:25:34;28.25;;;12.88;;
18172;SDS011;9211;48.818;9.312;2023-02-08T06:28:01;27.00;;;13.00;;
18172;SDS011;9211;48.818;9.312;2023-02-08T06:30:28;27.35;;;13.27;;
18172;SDS011;9211;48.818;9.312;2023-02-08T06:32:56;27.58;;;13.10;;
18172;SDS011;9211;48.818;9.312;2023-02-08T06:35:23;28.13;;;13.75;;
18172;SDS011;9211;48.818;9.312;2023-02-08T06:37:50;26.45;;;13.43;;
18172;SDS011;9211;48.818;9.312;2023-02-08T06:40:18;26.30;;;12.95;;
18172;SDS011;9211;48.818;9.312;2023-02-08T06:42:45;26.70;;;12.65;;
18172;SDS011;9211;48.818;9.312;2023-02-08T06:45:12;25.23;;;12.97;;
18172;SDS011;9211;48.818;9.312;2023-02-08T06:47:39;24.00;;;12.45;;
18172;SDS011;9211;48.818;9.312;2023-02-08T06:50:07;24.27;;;12.43;;
18172;SDS011;9211;48.818;9.312;2023-02-08T06:52:34;23.67;;;11.53;;
18172;SDS011;9211;48.818;9.312;2023-02-08T06:55:01;25.30;;;12.27;;
18172;SDS011;9211;48.818;9.312;2023-02-08T06:57:30;27.05;;;11.75;;
18172;SDS011;9211;48.818;9.312;2023-02-08T06:59:57;27.40;;;12.82;;
18172;SDS011;9211;48.818;9.312;2023-02-08T07:02:24;25.07;;;13.27;;
18172;SDS011;9211;48.818;9.312;2023-02-08T07:04:51;24.55;;;11.98;;
18172;SDS011;9211;48.818;9.312;2023-02-08T07:07:18;23.45;;;11.77;;
18172;SDS011;9211;48.818;9.312;2023-02-08T07:09:45;23.07;;;11.30;;
18172;SDS011;9211;48.818;9.312;2023-02-08T07:12:12;23.48;;;11.40;;
18172;SDS011;9211;48.818;9.312;2023-02-08T07:14:41;22.17;;;11.20;;
18172;SDS011;9211;48.818;9.312;2023-02-08T07:17:09;26.67;;;11.97;;
18172;SDS011;9211;48.818;9.312;2023-02-08T07:19:37;26.58;;;12.90;;
18172;SDS011;9211;48.818;9.312;2023-02-08T07:22:04;26.05;;;11.82;;
18172;SDS011;9211;48.818;9.312;2023-02-08T07:24:33;24.08;;;11.52;;
18172;SDS011;9211;48.818;9.312;2023-02-08T07:27:00;31.15;;;12.48;;
18172;SDS011;9211;48.818;9.312;2023-02-08T07:29:28;28.98;;;12.57;;
18172;SDS011;9211;48.818;9.312;2023-02-08T07:31:57;36.30;;;13.55;;
18172;SDS011;9211;48.818;9.312;2023-02-08T07:34:24;30.00;;;12.90;;
18172;SDS011;9211;48.818;9.312;2023-02-08T07:36:53;29.30;;;13.07;;
18172;SDS011;9211;48.818;9.312;2023-02-08T07:39:20;31.98;;;13.63;;
18172;SDS011;9211;48.818;9.312;2023-02-08T07:41:47;32.78;;;13.05;;
18172;SDS011;9211;48.818;9.312;2023-02-08T07:44:14;33.83;;;13.65;;
18172;SDS011;9211;48.818;9.312;2023-02-08T07:46:41;36.92;;;14.90;;
18172;SDS011;9211;48.818;9.312;2023-02-08T07:49:09;37.28;;;15.48;;
18172;SDS011;9211;48.818;9.312;2023-02-08T07:51:36;31.65;;;14.60;;
18172;SDS011;9211;48.818;9.312;2023-02-08T07:54:03;28.38;;;13.27;;
18172;SDS011;9211;48.818;9.312;2023-02-08T07:56:30;28.85;;;13.73;;
18172;SDS011;9211;48.818;9.312;2023-02-08T07:58:57;27.58;;;13.45;;
18172;SDS011;9211;48.818;9.312;2023-02-08T08:01:24;30.27;;;13.80;;
18172;SDS011;9211;48.818;9.312;2023-02-08T08:03:51;29.27;;;13.85;;
18172;SDS011;9211;48.818;9.312;2023-02-08T08:06:20;33.42;;;15.20;;
18172;SDS011;9211;48.818;9.312;2023-02-08T08:08:48;35.33;;;16.50;;
18172;SDS011;9211;48.818;9.312;2023-02-08T08:11:15;36.35;;;15.43;;
18172;SDS011;9211;48.818;9.312;2023-02-08T08:13:43;33.10;;;15.52;;
18172;SDS011;9211;48.818;9.312;2023-02-08T08:16:10;36.83;;;15.87;;
18172;SDS011;9211;48.818;9.312;2023-02-08T08:18:38;36.20;;;16.23;;
18172;SDS011;9211;48.818;9.312;2023-02-08T08:21:05;37.13;;;15.67;;
18172;SDS011;9211;48.818;9.312;2023-02-08T08:23:34;33.10;;;15.65;;
18172;SDS011;9211;48.818;9.312;2023-02-08T08:26:05;31.80;;;14.60;;
18172;SDS011;9211;48.818;9.312;2023-02-08T08:28:32;33.30;;;15.18;;
18172;SDS011;9211;48.818;9.312;2023-02-08T08:30:59;31.17;;;14.68;;
18172;SDS011;9211;48.818;9.312;2023-02-08T08:33:26;32.00;;;14.90;;
18172;SDS011;9211;48.818;9.312;2023-02-08T08:35:53;32.05;;;14.48;;
18172;SDS011;9211;48.818;9.312;2023-02-08T08:38:20;34.58;;;14.88;;
18172;SDS011;9211;48.818;9.312;2023-02-08T08:40:48;32.22;;;14.90;;
18172;SDS011;9211;48.818;9.312;2023-02-08T08:43:15;28.63;;;13.83;;
18172;SDS011;9211;48.818;9.312;2023-02-08T08:45:43;30.80;;;14.20;;
18172;SDS011;9211;48.818;9.312;2023-02-08T08:48:10;27.45;;;14.13;;
18172;SDS011;9211;48.818;9.312;2023-02-08T08:50:37;28.15;;;14.10;;
18172;SDS011;9211;48.818;9.312;2023-02-08T08:53:04;30.48;;;14.15;;
18172;SDS011;9211;48.818;9.312;2023-02-08T08:55:31;31.70;;;14.38;;
18172;SDS011;9211;48.818;9.312;2023-02-08T08:57:59;28.88;;;14.25;;
18172;SDS011;9211;48.818;9.312;2023-02-08T09:00:26;29.23;;;13.57;;
18172;SDS011;9211;48.818;9.312;2023-02-08T09:02:53;28.13;;;13.77;;
18172;SDS011;9211;48.818;9.312;2023-02-08T09:05:20;32.05;;;14.25;;
18172;SDS011;9211;48.818;9.312;2023-02-08T09:07:47;29.52;;;13.77;;
18172;SDS011;9211;48.818;9.312;2023-02-08T09:10:14;31.63;;;13.52;;
18172;SDS011;9211;48.818;9.312;2023-02-08T09:12:41;31.30;;;13.82;;
18172;SDS011;9211;48.818;9.312;2023-02-08T09:15:09;28.23;;;13.27;;
18172;SDS011;9211;48.818;9.312;2023-02-08T09:17:36;31.33;;;14.15;;
18172;SDS011;9211;48.818;9.312;2023-02-08T09:20:04;27.93;;;14.00;;
18172;SDS011;9211;48.818;9.312;2023-02-08T09:22:31;29.35;;;13.70;;
18172;SDS011;9211;48.818;9.312;2023-02-08T09:24:58;31.90;;;14.40;;
18172;SDS011;9211;48.818;9.312;2023-02-08T09:27:26;41.13;;;16.17;;
18172;SDS011;9211;48.818;9.312;2023-02-08T09:29:53;34.50;;;15.27;;
18172;SDS011;9211;48.818;9.312;2023-02-08T09:32:22;34.00;;;14.98;;
18172;SDS011;9211;48.818;9.312;2023-02-08T09:34:49;32.72;;;13.75;;
18172;SDS011;9211;48.818;9.312;2023-02-08T09:37:16;31.83;;;14.87;;
18172;SDS011;9211;48.818;9.312;2023-02-08T09:39:43;31.17;;;14.15;;
18172;SDS011;9211;48.818;9.312;2023-02-08T09:42:19;31.38;;;14.07;;
18172;SDS011;9211;48.818;9.312;2023-02-08T09:45:00;31.15;;;14.20;;
18172;SDS011;9211;48.818;9.312;2023-02-08T09:47:46;29.15;;;14.10;;
18172;SDS011;9211;48.818;9.312;2023-02-08T09:50:22;29.13;;;13.80;;
18172;SDS011;9211;48.818;9.312;2023-02-08T09:52:57;27.45;;;13.55;;
18172;SDS011;9211;48.818;9.312;2023-02-08T09:55:31;30.13;;;13.67;;
18172;SDS011;9211;48.818;9.312;2023-02-08T09:58:02;31.70;;;13.35;;
18172;SDS011;9211;48.818;9.312;2023-02-08T10:00:34;35.85;;;13.43;;
18172;SDS011;9211;48.818;9.312;2023-02-08T10:03:04;31.52;;;13.20;;
18172;SDS011;9211;48.818;9.312;2023-02-08T10:05:34;27.25;;;12.90;;
18172;SDS011;9211;48.818;9.312;2023-02-08T10:08:01;28.20;;;13.03;;
18172;SDS011;9211;48.818;9.312;2023-02-08T10:10:32;27.60;;;13.90;;
18172;SDS011;9211;48.818;9.312;2023-02-08T10:13:11;23.05;;;12.25;;
18172;SDS011;9211;48.818;9.312;2023-02-08T10:15:46;26.58;;;13.30;;
18172;SDS011;9211;48.818;9.312;2023-02-08T10:18:23;27.27;;;12.55;;
18172;SDS011;9211;48.818;9.312;2023-02-08T10:21:12;24.85;;;12.38;;
18172;SDS011;9211;48.818;9.312;2023-02-08T10:23:55;28.17;;;12.67;;
18172;SDS011;9211;48.818;9.312;2023-02-08T10:26:40;25.17;;;12.98;;
18172;SDS011;9211;48.818;9.312;2023-02-08T10:32:24;22.90;;;11.60;;
18172;SDS011;9211;48.818;9.312;2023-02-08T10:35:02;24.73;;;12.15;;
18172;SDS011;9211;48.818;9.312;2023-02-08T10:37:35;24.52;;;12.00;;
18172;SDS011;9211;48.818;9.312;2023-02-08T10:40:13;24.55;;;11.77;;
18172;SDS011;9211;48.818;9.312;2023-02-08T10:42:50;24.23;;;11.63;;
18172;SDS011;9211;48.818;9.312;2023-02-08T10:45:24;22.08;;;11.85;;
18172;SDS011;9211;48.818;9.312;2023-02-08T10:47:55;20.15;;;11.13;;
18172;SDS011;9211;48.818;9.312;2023-02-08T10:50:31;25.52;;;11.80;;
18172;SDS011;9211;48.818;9.312;2023-02-08T10:53:00;20.67;;;10.88;;
18172;SDS011;9211;48.818;9.312;2023-02-08T10:55:29;22.77;;;11.07;;
18172;SDS011;9211;48.818;9.312;2023-02-08T10:57:58;21.30;;;10.50;;
18172;SDS011;9211;48.818;9.312;2023-02-08T11:00:26;22.50;;;11.05;;
18172;SDS011;9211;48.818;9.312;2023-02-08T11:02:56;19.48;;;10.52;;
18172;SDS011;9211;48.818;9.312;2023-02-08T11:05:32;23.95;;;10.52;;
18172;SDS011;9211;48.818;9.312;2023-02-08T11:08:03;23.88;;;10.60;;
18172;SDS011;9211;48.818;9.312;2023-02-08T11:10:32;19.48;;;10.07;;
18172;SDS011;9211;48.818;9.312;2023-02-08T11:13:01;20.40;;;10.57;;
18172;SDS011;9211;48.818;9.312;2023-02-08T11:15:33;21.08;;;10.85;;
18172;SDS011;9211;48.818;9.312;2023-02-08T11:18:04;20.20;;;10.00;;
18172;SDS011;9211;48.818;9.312;2023-02-08T11:20:40;21.40;;;9.87;;
18172;SDS011;9211;48.818;9.312;2023-02-08T11:23:16;19.88;;;9.93;;
18172;SDS011;9211;48.818;9.312;2023-02-08T11:25:47;20.70;;;10.15;;
18172;SDS011;9211;48.818;9.312;2023-02-08T11:28:21;16.27;;;8.37;;
18172;SDS011;9211;48.818;9.312;2023-02-08T11:30:54;18.65;;;8.68;;
18172;SDS011;9211;48.818;9.312;2023-02-08T11:33:22;16.15;;;8.32;;
18172;SDS011;9211;48.818;9.312;2023-02-08T11:36:03;15.77;;;7.90;;
18172;SDS011;9211;48.818;9.312;2023-02-08T11:38:33;14.68;;;7.00;;
18172;SDS011;9211;48.818;9.312;2023-02-08T11:41:02;12.70;;;6.93;;
18172;SDS011;9211;48.818;9.312;2023-02-08T11:43:31;14.13;;;7.03;;
18172;SDS011;9211;48.818;9.312;2023-02-08T11:46:01;14.98;;;7.10;;
18172;SDS011;9211;48.818;9.312;2023-02-08T11:48:37;14.23;;;6.60;;
18172;SDS011;9211;48.818;9.312;2023-02-08T11:51:09;13.15;;;6.45;;
18172;SDS011;9211;48.818;9.312;2023-02-08T11:53:40;16.00;;;6.32;;
18172;SDS011;9211;48.818;9.312;2023-02-08T11:56:15;12.13;;;6.28;;
18172;SDS011;9211;48.818;9.312;2023-02-08T11:59:00;11.82;;;6.55;;
18172;SDS011;9211;48.818;9.312;2023-02-08T12:01:31;14.95;;;6.30;;
18172;SDS011;9211;48.818;9.312;2023-02-08T12:04:00;11.70;;;6.20;;
18172;SDS011;9211;48.818;9.312;2023-02-08T12:06:38;13.35;;;6.53;;
18172;SDS011;9211;48.818;9.312;2023-02-08T12:09:27;13.43;;;6.13;;
18172;SDS011;9211;48.818;9.312;2023-02-08T12:12:15;11.73;;;6.18;;
18172;SDS011;9211;48.818;9.312;2023-02-08T12:14:49;12.50;;;6.15;;
18172;SDS011;9211;48.818;9.312;2023-02-08T12:17:26;13.52;;;6.15;;
18172;SDS011;9211;48.818;9.312;2023-02-08T12:20:26;13.13;;;6.20;;
18172;SDS011;9211;48.818;9.312;2023-02-08T12:23:01;16.00;;;6.35;;
18172;SDS011;9211;48.818;9.312;2023-02-08T12:25:51;12.07;;;5.80;;
18172;SDS011;9211;48.818;9.312;2023-02-08T12:28:28;13.15;;;6.18;;
18172;SDS011;9211;48.818;9.312;2023-02-08T12:31:06;12.40;;;6.13;;
18172;SDS011;9211;48.818;9.312;2023-02-08T12:33:41;12.45;;;6.18;;
18172;SDS011;9211;48.818;9.312;2023-02-08T12:36:30;13.48;;;6.07;;
18172;SDS011;9211;48.818;9.312;2023-02-08T12:39:08;11.43;;;5.60;;
18172;SDS011;9211;48.818;9.312;2023-02-08T12:45:26;10.85;;;5.50;;
18172;SDS011;9211;48.818;9.312;2023-02-08T12:48:12;12.05;;;5.57;;
18172;SDS011;9211;48.818;9.312;2023-02-08T12:50:55;10.50;;;5.70;;
18172;SDS011;9211;48.818;9.312;2023-02-08T12:53:29;12.25;;;5.32;;
18172;SDS011;9211;48.818;9.312;2023-02-08T12:56:02;13.23;;;5.65;;
18172;SDS011;9211;48.818;9.312;2023-02-08T12:58:34;13.88;;;5.93;;
18172;SDS011;9211;48.818;9.312;2023-02-08T13:01:07;11.82;;;5.70;;
18172;SDS011;9211;48.818;9.312;2023-02-08T13:03:39;12.05;;;5.30;;
18172;SDS011;9211;48.818;9.312;2023-02-08T13:06:12;12.13;;;5.78;;
18172;SDS011;9211;48.818;9.312;2023-02-08T13:08:44;11.00;;;5.45;;
18172;SDS011;9211;48.818;9.312;2023-02-08T13:11:19;10.47;;;5.50;;
18172;SDS011;9211;48.818;9.312;2023-02-08T13:13:55;9.55;;;5.30;;
18172;SDS011;9211;48.818;9.312;2023-02-08T13:16:27;11.20;;;5.68;;
18172;SDS011;9211;48.818;9.312;2023-02-08T13:19:03;11.68;;;5.95;;
18172;SDS011;9211;48.818;9.312;2023-02-08T13:21:41;11.37;;;5.60;;
18172;SDS011;9211;48.818;9.312;2023-02-08T13:24:12;10.02;;;5.30;;
18172;SDS011;9211;48.818;9.312;2023-02-08T13:26:45;12.05;;;5.40;;
18172;SDS011;9211;48.818;9.312;2023-02-08T13:29:14;10.25;;;5.68;;
18172;SDS011;9211;48.818;9.312;2023-02-08T13:31:44;13.35;;;6.28;;
18172;SDS011;9211;48.818;9.312;2023-02-08T13:34:16;10.75;;;5.38;;
18172;SDS011;9211;48.818;9.312;2023-02-08T13:36:49;10.13;;;5.43;;
18172;SDS011;9211;48.818;9.312;2023-02-08T13:39:25;11.73;;;5.97;;
18172;SDS011;9211;48.818;9.312;2023-02-08T13:41:59;12.57;;;5.53;;
18172;SDS011;9211;48.818;9.312;2023-02-08T13:44:29;12.65;;;5.68;;
18172;SDS011;9211;48.818;9.312;2023-02-08T13:46:59;11.68;;;5.75;;
18172;SDS011;9211;48.818;9.312;2023-02-08T13:49:43;14.13;;;5.95;;
18172;SDS011;9211;48.818;9.312;2023-02-08T13:58:26;12.40;;;6.17;;
18172;SDS011;9211;48.818;9.312;2023-02-08T14:01:00;12.00;;;6.32;;
18172;SDS011;9211;48.818;9.312;2023-02-08T14:03:38;17.38;;;7.18;;
18172;SDS011;9211;48.818;9.312;2023-02-08T14:06:05;12.35;;;6.45;;
18172;SDS011;9211;48.818;9.312;2023-02-08T14:08:40;12.13;;;6.63;;
18172;SDS011;9211;48.818;9.312;2023-02-08T14:11:15;11.45;;;6.22;;
18172;SDS011;9211;48.818;9.312;2023-02-08T14:13:53;14.93;;;7.25;;
18172;SDS011;9211;48.818;9.312;2023-02-08T14:16:26;12.40;;;6.75;;
18172;SDS011;9211;48.818;9.312;2023-02-08T14:18:58;14.07;;;7.07;;
18172;SDS011;9211;48.818;9.312;2023-02-08T14:21:29;13.25;;;6.43;;
18172;SDS011;9211;48.818;9.312;2023-02-08T14:23:59;12.70;;;6.32;;
18172;SDS011;9211;48.818;9.312;2023-02-08T14:26:28;12.18;;;6.80;;
18172;SDS011;9211;48.818;9.312;2023-02-08T14:28:59;16.58;;;7.13;;
18172;SDS011;9211;48.818;9.312;2023-02-08T14:31:37;14.70;;;7.25;;
18172;SDS011;9211;48.818;9.312;2023-02-08T14:34:15;13.20;;;7.10;;
18172;SDS011;9211;48.818;9.312;2023-02-08T14:36:56;13.73;;;7.28;;
18172;SDS011;9211;48.818;9.312;2023-02-08T14:39:30;13.07;;;6.95;;
18172;SDS011;9211;48.818;9.312;2023-02-08T14:41:59;14.68;;;7.50;;
18172;SDS011;9211;48.818;9.312;2023-02-08T14:50:40;13.80;;;7.00;;
18172;SDS011;9211;48.818;9.312;2023-02-08T14:53:22;13.18;;;7.20;;
18172;SDS011;9211;48.818;9.312;2023-02-08T14:55:53;13.75;;;7.45;;
18172;SDS011;9211;48.818;9.312;2023-02-08T14:58:27;13.50;;;7.45;;
18172;SDS011;9211;48.818;9.312;2023-02-08T15:00:58;12.52;;;7.07;;
18172;SDS011;9211;48.818;9.312;2023-02-08T15:03:28;12.55;;;7.25;;
18172;SDS011;9211;48.818;9.312;2023-02-08T15:06:02;13.85;;;7.28;;
18172;SDS011;9211;48.818;9.312;2023-02-08T15:08:50;12.32;;;7.20;;
18172;SDS011;9211;48.818;9.312;2023-02-08T15:11:25;13.35;;;7.30;;
18172;SDS011;9211;48.818;9.312;2023-02-08T15:13:56;13.10;;;7.13;;
18172;SDS011;9211;48.818;9.312;2023-02-08T15:16:28;15.02;;;7.43;;
18172;SDS011;9211;48.818;9.312;2023-02-08T15:19:00;15.93;;;8.20;;
18172;SDS011;9211;48.818;9.312;2023-02-08T15:21:29;16.75;;;9.02;;
18172;SDS011;9211;48.818;9.312;2023-02-08T15:24:01;22.30;;;9.20;;